Time;durP1;ratioP1;P1;durP2;ratioP2;P2;SDS_P1;SDS_P2;PMS_P1;PMS_P2;Temp;Humidity;BMP_temperature;BMP_pressure;BME280_temperature;BME280_humidity;BME280_pressure;Samples;Min_cycle;Max_cycle;Signal;HPM_P1;HPM_P2
2021/01/13 00:00:25;;;;;;;;;;;;;;;0.32;76.82;97059.07;1746543;81;25715;-87
2021/01/13 00:03:13;;;;;;;;;;;;;;;0.34;76.89;97057.23;1742700;81;20458;-87
2021/01/13 00:06:01;;;;;;;;;;;;;;;0.38;76.97;97060.05;1740855;81;26293;-88
2021/01/13 00:08:47;;;;;;;;;;;;;;;0.39;77.04;97053.52;1703974;83;24729;-87
2021/01/13 00:11:33;;;;;;;;;;;;;;;0.43;77.09;97067.08;1706607;84;20269;-87
2021/01/13 00:14:19;;;;;;;;;;;;;;;0.45;77.14;97069.55;1703826;84;24987;-87
2021/01/13 00:17:06;;;;;;;;;;;;;;;0.48;77.21;97080.98;1676925;84;22111;-87
2021/01/13 00:19:52;;;;;;;;;;;;;;;0.48;77.27;97071.98;1743597;81;26300;-88
2021/01/13 00:22:40;;;;;;;;;;;;;;;0.51;77.33;97075.22;1735907;81;24695;-86
2021/01/13 00:25:25;;;;;;;;;;;;;;;0.53;77.38;97080.30;1739577;81;20385;-87
2021/01/13 00:28:16;;;;;;;;;;;;;;;0.53;77.43;97079.84;1738131;81;25073;-87
2021/01/13 00:31:02;;;;;;;;;;;;;;;0.55;77.46;97087.45;1737757;81;22007;-87
2021/01/13 00:33:49;;;;;;;;;;;;;;;0.56;77.50;97095.56;1738722;81;27122;-87
2021/01/13 00:36:35;;;;;;;;;;;;;;;0.55;77.54;97093.89;1738372;81;24629;-87
2021/01/13 00:39:21;;;;;;;;;;;;;;;0.57;77.58;97098.52;1738273;81;20265;-87
2021/01/13 00:42:09;;;;;;;;;;;;;;;0.60;77.62;97100.47;1737729;81;20458;-87
2021/01/13 00:44:56;;;;;;;;;;;;;;;0.61;77.67;97107.73;1735857;81;22250;-87
2021/01/13 00:47:43;;;;;;;;;;;;;;;0.63;77.71;97115.77;1732727;81;26105;-87
2021/01/13 00:50:29;;;;;;;;;;;;;;;0.63;77.74;97114.48;1735265;81;24663;-87
2021/01/13 00:53:15;;;;;;;;;;;;;;;0.65;77.76;97115.25;1739720;81;20180;-87
2021/01/13 00:59:10;;;;;;;;;;;;;;;0.67;77.82;97134.45;1784965;79;23032;-87
2021/01/13 01:01:57;;;;;;;;;;;;;;;0.68;77.86;97133.10;1793665;79;26244;-87
2021/01/13 01:04:43;;;;;;;;;;;;;;;0.68;77.87;97134.39;1797689;79;24596;-87
2021/01/13 01:07:29;;;;;;;;;;;;;;;0.69;77.89;97135.22;1797738;79;20361;-87
2021/01/13 01:10:15;;;;;;;;;;;;;;;0.67;77.90;97128.02;1796889;79;24918;-87
2021/01/13 01:13:03;;;;;;;;;;;;;;;0.64;77.92;97128.20;1795347;79;22357;-88
2021/01/13 01:15:49;;;;;;;;;;;;;;;0.63;77.91;97127.36;1799873;79;26192;-87
2021/01/13 01:18:35;;;;;;;;;;;;;;;0.65;77.91;97128.58;1796909;79;24597;-87
2021/01/13 01:21:21;;;;;;;;;;;;;;;0.64;77.93;97138.04;1797734;79;20520;-87
2021/01/13 01:24:07;;;;;;;;;;;;;;;0.64;77.96;97150.08;1795250;79;24889;-86
2021/01/13 01:26:54;;;;;;;;;;;;;;;0.63;77.96;97152.27;1792793;79;22372;-87
2021/01/13 01:29:41;;;;;;;;;;;;;;;0.62;77.97;97148.02;1797892;79;26322;-87
2021/01/13 01:32:28;;;;;;;;;;;;;;;0.64;77.99;97159.09;1797110;79;24665;-87
2021/01/13 01:35:14;;;;;;;;;;;;;;;0.63;78.00;97161.27;1799863;79;20266;-87
2021/01/13 01:38:00;;;;;;;;;;;;;;;0.64;78.00;97164.23;1802155;79;25885;-87
2021/01/13 01:40:49;;;;;;;;;;;;;;;0.64;78.04;97166.80;1791357;79;22089;-87
2021/01/13 01:43:35;;;;;;;;;;;;;;;0.64;78.05;97164.23;1793230;79;26164;-87
2021/01/13 01:46:26;;;;;;;;;;;;;;;0.66;78.05;97155.95;1793327;79;24592;-87
2021/01/13 01:49:12;;;;;;;;;;;;;;;0.67;78.08;97160.20;1793116;79;20420;-87
2021/01/13 01:51:59;;;;;;;;;;;;;;;0.67;78.08;97162.33;1794656;79;25000;-87
2021/01/13 01:54:45;;;;;;;;;;;;;;;0.69;78.10;97168.69;1797007;79;22236;-87
2021/01/13 01:57:32;;;;;;;;;;;;;;;0.69;78.10;97168.69;1796619;78;26108;-87
2021/01/13 02:00:29;;;;;;;;;;;;;;;0.72;78.12;97172.38;1813173;78;24651;-87
2021/01/13 02:02:54;;;;;;;;;;;;;;;0.73;78.12;97169.73;1808788;79;20260;-87
2021/01/13 02:05:40;;;;;;;;;;;;;;;0.75;78.13;97173.08;1814089;78;24954;-87
2021/01/13 02:08:26;;;;;;;;;;;;;;;0.79;78.15;97173.74;1813300;78;22258;-87
2021/01/13 02:11:13;;;;;;;;;;;;;;;0.77;78.15;97172.53;1819310;78;26210;-87
2021/01/13 02:14:04;;;;;;;;;;;;;;;0.79;78.17;97176.32;1812216;78;24728;-87
2021/01/13 02:16:50;;;;;;;;;;;;;;;0.81;78.17;97165.50;1815273;78;20361;-87
2021/01/13 02:19:37;;;;;;;;;;;;;;;0.87;78.16;97162.61;1813792;78;25943;-87
2021/01/13 02:22:26;;;;;;;;;;;;;;;0.93;78.17;97160.17;1813702;78;23116;-87
2021/01/13 02:25:14;;;;;;;;;;;;;;;0.93;78.18;97165.33;1813851;78;26218;-87
2021/01/13 02:28:00;;;;;;;;;;;;;;;0.91;78.20;97164.56;1814965;77;23680;-87
2021/01/13 02:30:46;;;;;;;;;;;;;;;0.88;78.20;97155.23;1814799;78;20272;-87
2021/01/13 02:33:32;;;;;;;;;;;;;;;0.87;78.18;97160.48;1815977;78;25248;-87
2021/01/13 02:36:18;;;;;;;;;;;;;;;0.84;78.17;97162.30;1814126;78;22422;-87
2021/01/13 02:39:05;;;;;;;;;;;;;;;0.82;78.16;97164.11;1816352;78;26106;-87
2021/01/13 02:41:51;;;;;;;;;;;;;;;0.79;78.14;97173.30;1814352;78;24587;-87
2021/01/13 02:44:37;;;;;;;;;;;;;;;0.75;78.14;97162.78;1811927;78;20266;-87
2021/01/13 02:47:23;;;;;;;;;;;;;;;0.71;78.12;97162.53;1812827;78;25695;-87
2021/01/13 02:50:09;;;;;;;;;;;;;;;0.70;78.09;97157.48;1812869;78;22214;-87
2021/01/13 02:52:57;;;;;;;;;;;;;;;0.66;78.09;97143.08;1814217;78;26960;-87
2021/01/13 02:55:44;;;;;;;;;;;;;;;0.62;78.08;97154.00;1810831;78;24701;-87
2021/01/13 02:58:30;;;;;;;;;;;;;;;0.59;78.04;97150.77;1818625;77;20517;-87
2021/01/13 03:01:16;;;;;;;;;;;;;;;0.58;78.04;97150.37;1816372;78;26015;-87
2021/01/13 03:04:03;;;;;;;;;;;;;;;0.54;78.03;97161.75;1816984;77;22132;-87
2021/01/13 03:06:49;;;;;;;;;;;;;;;0.51;78.01;97169.61;1816138;79;26112;-87
2021/01/13 03:09:35;;;;;;;;;;;;;;;0.47;78.00;97165.08;1816144;77;24586;-87
2021/01/13 03:12:21;;;;;;;;;;;;;;;0.46;77.99;97167.72;1819041;77;20315;-86
2021/01/13 03:15:07;;;;;;;;;;;;;;;0.43;77.95;97176.44;1819040;77;25749;-87
2021/01/13 03:17:53;;;;;;;;;;;;;;;0.39;77.92;97174.91;1816275;77;22095;-87
2021/01/13 03:20:38;;;;;;;;;;;;;;;0.39;77.91;97187.32;1815795;78;26339;-87
2021/01/13 03:23:25;;;;;;;;;;;;;;;0.38;77.91;97180.50;1815916;77;25593;-87
2021/01/13 03:26:10;;;;;;;;;;;;;;;0.38;77.88;97185.65;1819134;77;20341;-87
2021/01/13 03:28:56;;;;;;;;;;;;;;;0.38;77.86;97188.70;1816255;78;24876;-87
2021/01/13 03:31:43;;;;;;;;;;;;;;;0.36;77.85;97181.05;1820965;77;22228;-87
2021/01/13 03:34:29;;;;;;;;;;;;;;;0.35;77.82;97188.39;1817529;77;26940;-87
2021/01/13 03:37:15;;;;;;;;;;;;;;;0.35;77.82;97195.27;1818795;77;24457;-87
2021/01/13 03:40:02;;;;;;;;;;;;;;;0.35;77.82;97196.55;1818277;77;20283;-87
2021/01/13 03:42:48;;;;;;;;;;;;;;;0.33;77.80;97194.05;1816519;78;24918;-87
2021/01/13 03:45:34;;;;;;;;;;;;;;;0.30;77.79;97196.78;1818341;78;21557;-86
2021/01/13 03:48:20;;;;;;;;;;;;;;;0.28;77.77;97206.31;1816400;79;26940;-86
2021/01/13 03:51:06;;;;;;;;;;;;;;;0.23;77.75;97209.56;1818583;77;24494;-86
2021/01/13 03:53:52;;;;;;;;;;;;;;;0.23;77.75;97231.42;1824423;77;20267;-86
2021/01/13 03:56:38;;;;;;;;;;;;;;;0.20;77.72;97221.30;1819103;77;25989;-86
2021/01/13 03:59:27;;;;;;;;;;;;;;;0.20;77.69;97241.04;1811654;78;22992;-87
2021/01/13 04:02:13;;;;;;;;;;;;;;;0.20;77.69;97244.45;1808950;78;26071;-86
2021/01/13 04:04:59;;;;;;;;;;;;;;;0.18;77.68;97251.39;1806034;78;24838;-86
2021/01/13 04:07:45;;;;;;;;;;;;;;;0.17;77.67;97251.01;1802257;79;20522;-86
2021/01/13 04:10:31;;;;;;;;;;;;;;;0.16;77.63;97251.94;1805837;77;25119;-86
2021/01/13 04:13:17;;;;;;;;;;;;;;;0.17;77.60;97248.89;1802280;78;22315;-86
2021/01/13 04:16:04;;;;;;;;;;;;;;;0.17;77.56;97254.86;1807856;78;26364;-86
2021/01/13 04:18:50;;;;;;;;;;;;;;;0.17;77.54;97265.16;1805013;78;24621;-86
2021/01/13 04:21:36;;;;;;;;;;;;;;;0.17;77.51;97274.61;1809444;78;20546;-86
2021/01/13 04:24:22;;;;;;;;;;;;;;;0.16;77.49;97284.09;1803942;79;24966;-86
2021/01/13 04:27:13;;;;;;;;;;;;;;;0.14;77.46;97281.20;1805811;79;22193;-86
2021/01/13 04:29:59;;;;;;;;;;;;;;;0.12;77.41;97287.69;1805789;78;25430;-86
2021/01/13 04:32:50;;;;;;;;;;;;;;;0.08;77.36;97279.74;1809543;78;24611;-86
2021/01/13 04:35:36;;;;;;;;;;;;;;;0.04;77.32;97285.94;1807471;78;20260;-87
2021/01/13 04:38:22;;;;;;;;;;;;;;;0.00;77.25;97279.28;1800961;78;24903;-86
2021/01/13 04:41:08;;;;;;;;;;;;;;;-0.02;77.18;97282.36;1804481;78;22171;-86
2021/01/13 04:43:54;;;;;;;;;;;;;;;-0.02;77.12;97284.94;1809490;79;26317;-86
2021/01/13 04:46:41;;;;;;;;;;;;;;;-0.03;77.02;97280.24;1810184;78;24509;-86
2021/01/13 04:49:27;;;;;;;;;;;;;;;-0.05;76.95;97288.47;1809160;78;20293;-85
2021/01/13 04:52:14;;;;;;;;;;;;;;;-0.07;76.87;97284.31;1805067;78;25904;-86
2021/01/13 04:55:03;;;;;;;;;;;;;;;-0.10;76.80;97286.56;1809092;78;22190;-86
2021/01/13 04:57:49;;;;;;;;;;;;;;;-0.09;76.70;97288.69;1805448;78;26130;-86
2021/01/13 05:00:39;;;;;;;;;;;;;;;-0.07;76.63;97301.03;1805997;78;24854;-86
2021/01/13 05:03:25;;;;;;;;;;;;;;;-0.08;76.57;97310.92;1807586;78;20269;-86
2021/01/13 05:06:11;;;;;;;;;;;;;;;-0.11;76.50;97313.17;1807961;78;25314;-86
2021/01/13 05:08:57;;;;;;;;;;;;;;;-0.12;76.41;97315.39;1810493;78;22119;-86
2021/01/13 05:11:43;;;;;;;;;;;;;;;-0.15;76.32;97307.80;1808609;78;27121;-86
2021/01/13 05:14:29;;;;;;;;;;;;;;;-0.15;76.23;97312.09;1804369;78;25548;-86
2021/01/13 05:17:16;;;;;;;;;;;;;;;-0.18;76.17;97315.66;1803245;79;20329;-86
2021/01/13 05:20:03;;;;;;;;;;;;;;;-0.17;76.07;97325.50;1804809;78;25083;-86
2021/01/13 05:22:49;;;;;;;;;;;;;;;-0.18;76.00;97325.11;1806623;78;22238;-86
2021/01/13 05:25:35;;;;;;;;;;;;;;;-0.17;75.92;97325.50;1805903;78;26235;-86
2021/01/13 05:28:22;;;;;;;;;;;;;;;-0.17;75.88;97329.34;1805507;78;24618;-86
2021/01/13 05:31:08;;;;;;;;;;;;;;;-0.18;75.82;97326.39;1807647;78;20345;-86
2021/01/13 05:33:55;;;;;;;;;;;;;;;-0.16;75.75;97329.70;1807803;78;24918;-86
2021/01/13 05:36:40;;;;;;;;;;;;;;;-0.13;75.72;97327.02;1806140;79;23179;-86
2021/01/13 05:39:26;;;;;;;;;;;;;;;-0.14;75.65;97323.61;1805407;78;26185;-86
2021/01/13 05:42:14;;;;;;;;;;;;;;;-0.13;75.60;97330.42;1806419;78;25478;-86
2021/01/13 05:45:01;;;;;;;;;;;;;;;-0.12;75.58;97324.39;1807157;78;20421;-86
2021/01/13 05:47:47;;;;;;;;;;;;;;;-0.10;75.51;97333.30;1805353;79;25073;-86
2021/01/13 05:50:32;;;;;;;;;;;;;;;-0.10;75.47;97332.01;1806060;78;22371;-86
2021/01/13 05:53:18;;;;;;;;;;;;;;;-0.11;75.41;97338.88;1806443;78;26112;-86
2021/01/13 05:56:05;;;;;;;;;;;;;;;-0.09;75.36;97346.53;1809172;78;24714;-86
2021/01/13 05:58:52;;;;;;;;;;;;;;;-0.09;75.32;97343.52;1802772;79;20342;-85
2021/01/13 06:01:41;;;;;;;;;;;;;;;-0.08;75.26;97349.50;1804048;79;24913;-86
2021/01/13 06:04:27;;;;;;;;;;;;;;;-0.07;75.21;97350.72;1802457;79;22864;-86
2021/01/13 06:07:14;;;;;;;;;;;;;;;-0.08;75.17;97345.19;1801215;79;25927;-86
2021/01/13 06:10:01;;;;;;;;;;;;;;;-0.07;75.12;97348.60;1805437;79;24854;-86
2021/01/13 06:12:47;;;;;;;;;;;;;;;-0.04;75.06;97354.88;1802482;79;20660;-86
2021/01/13 06:15:33;;;;;;;;;;;;;;;-0.04;75.01;97362.14;1802661;79;24906;-86
2021/01/13 06:18:19;;;;;;;;;;;;;;;-0.02;74.94;97360.80;1801239;79;22176;-86
2021/01/13 06:21:05;;;;;;;;;;;;;;;0.02;74.91;97362.77;1803680;79;26287;-86
2021/01/13 06:23:51;;;;;;;;;;;;;;;0.04;74.85;97370.81;1800815;79;24682;-86
2021/01/13 06:26:37;;;;;;;;;;;;;;;0.06;74.81;97370.27;1799257;79;20179;-86
2021/01/13 06:29:23;;;;;;;;;;;;;;;0.09;74.76;97375.75;1799995;79;24948;-86
2021/01/13 06:32:09;;;;;;;;;;;;;;;0.11;74.71;97377.80;1804377;79;22131;-86
2021/01/13 06:34:59;;;;;;;;;;;;;;;0.12;74.67;97378.16;1802865;79;26178;-86
2021/01/13 06:37:45;;;;;;;;;;;;;;;0.13;74.63;97385.82;1778682;79;24673;-86
2021/01/13 06:40:31;;;;;;;;;;;;;;;0.13;74.59;97388.39;1804624;79;20536;-86
2021/01/13 06:43:17;;;;;;;;;;;;;;;0.13;74.53;97390.12;1807507;79;24935;-86
2021/01/13 06:46:04;;;;;;;;;;;;;;;0.15;74.50;97391.74;1803625;79;22132;-86
2021/01/13 06:48:50;;;;;;;;;;;;;;;0.19;74.45;97391.98;1806188;79;27047;-87
2021/01/13 06:51:37;;;;;;;;;;;;;;;0.20;74.41;97394.10;1765402;79;24652;-86
2021/01/13 06:54:23;;;;;;;;;;;;;;;0.21;74.38;97396.61;1802514;79;20257;-87
2021/01/13 06:57:12;;;;;;;;;;;;;;;0.23;74.33;97398.64;1797141;79;20189;-86
2021/01/13 06:59:58;;;;;;;;;;;;;;;0.22;74.28;97398.26;1798520;79;22989;-86
2021/01/13 07:02:45;;;;;;;;;;;;;;;0.23;74.22;97401.22;1804163;79;26102;-87
2021/01/13 07:05:31;;;;;;;;;;;;;;;0.21;74.17;97396.61;1803603;78;24623;-87
2021/01/13 07:08:18;;;;;;;;;;;;;;;0.20;74.13;97397.52;1804032;79;20366;-87
2021/01/13 07:11:04;;;;;;;;;;;;;;;0.19;74.08;97400.14;1800704;79;24898;-87
2021/01/13 07:13:52;;;;;;;;;;;;;;;0.18;74.02;97397.18;1805396;79;22135;-87
2021/01/13 07:16:38;;;;;;;;;;;;;;;0.15;73.98;97408.91;1805590;79;26169;-87
2021/01/13 07:19:24;;;;;;;;;;;;;;;0.17;73.92;97412.23;1803065;79;25471;-87
2021/01/13 07:22:10;;;;;;;;;;;;;;;0.17;73.88;97408.38;1755398;80;20299;-87
2021/01/13 07:24:56;;;;;;;;;;;;;;;0.18;73.83;97414.74;1767693;80;22898;-87
2021/01/13 07:27:42;;;;;;;;;;;;;;;0.18;73.79;97424.20;1727335;82;23053;-88
2021/01/13 07:30:28;;;;;;;;;;;;;;;0.16;73.73;97429.43;1730420;81;26310;-88
2021/01/13 07:33:15;;;;;;;;;;;;;;;0.16;73.69;97438.44;1722432;82;25428;-87
2021/01/13 07:36:01;;;;;;;;;;;;;;;0.18;73.64;97437.89;1755165;80;20349;-87
2021/01/13 07:38:48;;;;;;;;;;;;;;;0.19;73.59;97435.71;1732618;82;24915;-87
2021/01/13 07:41:34;;;;;;;;;;;;;;;0.20;73.55;97439.95;1736973;82;22118;-87
2021/01/13 07:44:20;;;;;;;;;;;;;;;0.24;73.53;97441.94;1732235;82;26181;-87
2021/01/13 07:47:06;;;;;;;;;;;;;;;0.27;73.50;97439.23;1731890;82;24845;-87
2021/01/13 07:49:52;;;;;;;;;;;;;;;0.25;73.47;97444.45;1732600;82;20350;-87
2021/01/13 07:52:38;;;;;;;;;;;;;;;0.24;73.42;97441.94;1732759;82;25895;-87
2021/01/13 07:55:24;;;;;;;;;;;;;;;0.23;73.38;97446.69;1732830;82;22183;-87
2021/01/13 07:58:10;;;;;;;;;;;;;;;0.21;73.31;97453.21;1734650;82;26262;-87
2021/01/13 08:00:56;;;;;;;;;;;;;;;0.20;73.26;97454.55;1757651;80;24876;-87
2021/01/13 08:03:41;;;;;;;;;;;;;;;0.17;73.22;97456.80;1752475;80;20284;-89
2021/01/13 08:06:27;;;;;;;;;;;;;;;0.17;73.16;97450.81;1756744;80;25505;-88
2021/01/13 08:09:13;;;;;;;;;;;;;;;0.12;73.12;97447.61;1758907;80;22358;-88
2021/01/13 08:12:00;;;;;;;;;;;;;;;0.11;73.08;97444.20;1761098;80;26892;-88
2021/01/13 08:14:46;;;;;;;;;;;;;;;0.11;73.04;97441.63;1754685;80;24630;-88
2021/01/13 08:17:36;;;;;;;;;;;;;;;0.11;73.03;97451.92;1763279;80;20276;-88
2021/01/13 08:20:22;;;;;;;;;;;;;;;0.11;72.98;97444.20;1739816;80;24778;-88
2021/01/13 08:23:11;;;;;;;;;;;;;;;0.14;72.98;97449.23;1754649;80;22312;-88
2021/01/13 08:25:57;;;;;;;;;;;;;;;0.18;72.96;97448.19;1754618;80;26195;-88
2021/01/13 08:28:44;;;;;;;;;;;;;;;0.19;72.93;97448.58;1752430;80;24795;-88
2021/01/13 08:31:31;;;;;;;;;;;;;;;0.23;72.95;97450.09;1756994;80;20180;-88
2021/01/13 08:34:18;;;;;;;;;;;;;;;0.22;72.93;97453.56;1754847;80;25749;-87
2021/01/13 08:37:08;;;;;;;;;;;;;;;0.22;72.91;97453.56;1759230;80;22276;-87
2021/01/13 08:39:54;;;;;;;;;;;;;;;0.21;72.88;97449.35;1759088;80;26323;-87
2021/01/13 08:42:40;;;;;;;;;;;;;;;0.23;72.83;97450.55;1758879;80;24794;-87
2021/01/13 08:45:26;;;;;;;;;;;;;;;0.24;72.83;97459.49;1754838;80;20361;-87
2021/01/13 08:48:12;;;;;;;;;;;;;;;0.26;72.79;97456.86;1757722;80;24954;-88
2021/01/13 08:50:58;;;;;;;;;;;;;;;0.25;72.75;97459.88;1751645;80;22286;-87
2021/01/13 08:53:44;;;;;;;;;;;;;;;0.29;72.73;97466.55;1756912;80;26150;-87
2021/01/13 08:56:30;;;;;;;;;;;;;;;0.33;72.74;97453.09;1763431;80;24582;-87
2021/01/13 08:59:17;;;;;;;;;;;;;;;0.35;72.71;97456.44;1759135;80;20287;-87
2021/01/13 09:02:05;;;;;;;;;;;;;;;0.39;72.71;97456.67;1752353;80;24998;-87
2021/01/13 09:04:52;;;;;;;;;;;;;;;0.44;72.71;97461.16;1757241;80;22073;-87
2021/01/13 09:07:38;;;;;;;;;;;;;;;0.51;72.71;97455.30;1761275;80;27018;-87
2021/01/13 09:10:24;;;;;;;;;;;;;;;0.53;72.71;97457.36;1756856;80;25474;-89
2021/01/13 09:13:11;;;;;;;;;;;;;;;0.52;72.70;97471.13;1761177;80;20626;-88
2021/01/13 09:15:57;;;;;;;;;;;;;;;0.55;72.67;97463.25;1754910;80;25129;-88
2021/01/13 09:18:44;;;;;;;;;;;;;;;0.54;72.66;97468.05;1761609;80;22283;-87
2021/01/13 09:21:30;;;;;;;;;;;;;;;0.57;72.64;97470.02;1754718;80;26134;-88
2021/01/13 09:24:17;;;;;;;;;;;;;;;0.61;72.63;97465.55;1756867;80;24798;-88
2021/01/13 09:27:03;;;;;;;;;;;;;;;0.63;72.62;97465.04;1751886;80;20349;-87
2021/01/13 09:29:49;;;;;;;;;;;;;;;0.61;72.60;97464.27;1760279;80;24918;-88
2021/01/13 09:32:35;;;;;;;;;;;;;;;0.64;72.56;97456.42;1754857;80;22819;-88
2021/01/13 09:35:21;;;;;;;;;;;;;;;0.72;72.57;97456.88;1760184;80;26074;-88
2021/01/13 09:38:08;;;;;;;;;;;;;;;0.80;72.56;97460.79;1766098;80;24774;-87
2021/01/13 09:40:55;;;;;;;;;;;;;;;0.86;72.55;97458.38;1756385;80;20450;-87
2021/01/13 09:43:44;;;;;;;;;;;;;;;0.85;72.54;97459.28;1753951;80;24966;-87
2021/01/13 09:46:30;;;;;;;;;;;;;;;0.83;72.50;97445.63;1754708;80;22155;-87
2021/01/13 09:49:16;;;;;;;;;;;;;;;0.80;72.48;97455.64;1758060;80;26143;-87
2021/01/13 09:52:02;;;;;;;;;;;;;;;0.80;72.44;97454.35;1756166;80;24837;-88
2021/01/13 09:54:48;;;;;;;;;;;;;;;0.83;72.43;97455.93;1761322;80;20267;-88
2021/01/13 09:57:34;;;;;;;;;;;;;;;0.84;72.39;97439.58;1761111;80;24983;-87
2021/01/13 10:00:20;;;;;;;;;;;;;;;0.84;72.38;97434.43;1754390;80;21850;-88
2021/01/13 10:03:06;;;;;;;;;;;;;;;0.83;72.35;97450.33;1751911;80;26069;-88
2021/01/13 10:05:52;;;;;;;;;;;;;;;0.86;72.32;97444.22;1758122;80;25607;-87
2021/01/13 10:08:38;;;;;;;;;;;;;;;0.88;72.31;97438.52;1763544;80;20272;-86
2021/01/13 10:11:24;;;;;;;;;;;;;;;0.89;72.29;97435.05;1753924;80;24358;-88
2021/01/13 10:14:10;;;;;;;;;;;;;;;0.91;72.28;97434.98;1760549;80;22108;-87
2021/01/13 10:16:56;;;;;;;;;;;;;;;0.92;72.27;97429.77;1753705;80;26232;-88
2021/01/13 10:19:44;;;;;;;;;;;;;;;0.90;72.25;97439.30;1755922;80;24639;-88
2021/01/13 10:22:30;;;;;;;;;;;;;;;0.88;72.22;97446.25;1753848;80;20536;-91
2021/01/13 10:25:18;;;;;;;;;;;;;;;0.87;72.19;97437.33;1755860;80;25712;-89
2021/01/13 10:28:04;;;;;;;;;;;;;;;0.91;72.20;97438.39;1749590;80;22071;-91
2021/01/13 10:30:50;;;;;;;;;;;;;;;0.99;72.19;97435.44;1756406;80;27173;-89
2021/01/13 10:33:36;;;;;;;;;;;;;;;1.08;72.20;97438.88;1755770;80;24894;-90
2021/01/13 10:36:23;;;;;;;;;;;;;;;1.11;72.21;97431.83;1754945;80;20431;-90
2021/01/13 10:39:09;;;;;;;;;;;;;;;1.14;72.25;97439.87;1756561;80;25846;-89
2021/01/13 10:41:55;;;;;;;;;;;;;;;1.12;72.22;97439.11;1756281;80;23011;-89
2021/01/13 10:44:42;;;;;;;;;;;;;;;1.12;72.21;97442.52;1754623;80;26211;-88
2021/01/13 10:47:28;;;;;;;;;;;;;;;1.14;72.21;97432.98;1752888;80;24733;-89
2021/01/13 10:50:18;;;;;;;;;;;;;;;1.21;72.21;97436.91;1757373;80;20325;-89
2021/01/13 10:53:05;;;;;;;;;;;;;;;1.23;72.22;97429.95;1753569;80;25085;-90
2021/01/13 10:55:51;;;;;;;;;;;;;;;1.25;72.21;97432.47;1750335;80;22215;-89
2021/01/13 10:58:39;;;;;;;;;;;;;;;1.24;72.24;97431.63;1755439;80;27122;-89
2021/01/13 11:01:27;;;;;;;;;;;;;;;1.22;72.25;97426.16;1754503;80;25690;-89
2021/01/13 11:04:14;;;;;;;;;;;;;;;1.23;72.28;97431.25;1748770;80;20281;-89
2021/01/13 11:07:01;;;;;;;;;;;;;;;1.21;72.31;97431.77;1761048;80;26029;-89
2021/01/13 11:09:49;;;;;;;;;;;;;;;1.23;72.34;97429.12;1755358;80;23032;-89
2021/01/13 11:12:37;;;;;;;;;;;;;;;1.27;72.37;97429.34;1758202;80;26922;-89
2021/01/13 11:15:24;;;;;;;;;;;;;;;1.30;72.43;97425.34;1753761;80;24618;-89
2021/01/13 11:18:11;;;;;;;;;;;;;;;1.28;72.48;97423.73;1753773;80;20267;-88
2021/01/13 11:20:57;;;;;;;;;;;;;;;1.25;72.53;97425.54;1758110;80;24922;-88
2021/01/13 11:23:42;;;;;;;;;;;;;;;1.26;72.54;97425.92;1756030;80;23140;-89
2021/01/13 11:26:29;;;;;;;;;;;;;;;1.28;72.61;97419.41;1756406;80;26332;-89
2021/01/13 11:29:16;;;;;;;;;;;;;;;1.28;72.64;97425.86;1707815;83;25447;-89
2021/01/13 11:32:02;;;;;;;;;;;;;;;1.25;72.70;97417.00;1719496;82;20334;-88
2021/01/13 11:34:48;;;;;;;;;;;;;;;1.17;72.72;97415.23;1722850;82;25133;-89
2021/01/13 11:37:35;;;;;;;;;;;;;;;1.11;72.77;97421.98;1725639;82;22342;-89
2021/01/13 11:40:20;;;;;;;;;;;;;;;1.08;72.80;97419.11;1723192;81;26128;-91
2021/01/13 11:43:07;;;;;;;;;;;;;;;1.10;72.85;97424.16;1721181;82;24687;-90
2021/01/13 11:45:53;;;;;;;;;;;;;;;1.12;72.91;97415.92;1731126;81;20312;-90
2021/01/13 11:48:39;;;;;;;;;;;;;;;1.15;72.96;97413.18;1721637;79;86860;-93
2021/01/13 11:51:33;;;;;;;;;;;;;;;1.17;73.02;97411.38;1752431;82;20317;-95
2021/01/13 11:54:19;;;;;;;;;;;;;;;1.19;73.06;97404.42;1751771;82;26402;-95
2021/01/13 11:57:04;;;;;;;;;;;;;;;1.21;73.10;97405.16;1752267;82;24660;-92
2021/01/13 12:02:56;;;;;;;;;;;;;;;1.17;73.17;97403.64;1751534;82;24882;-91
2021/01/13 12:05:43;;;;;;;;;;;;;;;1.15;73.19;97395.98;1727535;82;22052;-95
2021/01/13 12:11:35;;;;;;;;;;;;;;;1.18;73.20;97388.12;1727971;83;20624;-94
2021/01/13 12:14:21;;;;;;;;;;;;;;;1.24;73.22;97387.82;1727463;83;20252;-94
2021/01/13 12:17:09;;;;;;;;;;;;;;;1.29;73.23;97393.20;1727334;83;20189;-94
2021/01/13 12:19:56;;;;;;;;;;;;;;;1.29;73.24;97392.74;1727840;83;22235;-94
2021/01/13 12:22:45;;;;;;;;;;;;;;;1.26;73.23;97392.42;1727312;83;26943;-93
2021/01/13 12:25:31;;;;;;;;;;;;;;;1.25;73.23;97382.22;1727242;83;25590;-94
2021/01/13 12:28:17;;;;;;;;;;;;;;;1.28;73.24;97381.21;1727535;83;20228;-95
2021/01/13 12:31:05;;;;;;;;;;;;;;;1.25;73.25;97379.16;1727340;83;24926;-93
2021/01/13 12:33:53;;;;;;;;;;;;;;;1.25;73.24;97384.31;1727459;83;22327;-95
2021/01/13 12:39:44;;;;;;;;;;;;;;;1.23;73.23;97390.02;1727500;83;20585;-95
2021/01/13 12:42:33;;;;;;;;;;;;;;;1.21;73.18;97381.52;1728311;83;20201;-95
2021/01/13 12:45:19;;;;;;;;;;;;;;;1.21;73.15;97385.38;1727362;83;25853;-93
2021/01/13 12:48:14;;;;;;;;;;;;;;;1.21;73.13;97389.70;1727776;83;21967;-94
2021/01/13 12:54:25;;;;;;;;;;;;;;;1.28;73.08;97395.39;1717963;83;20605;-95
2021/01/13 13:01:03;;;;;;;;;;;;;;;1.37;73.03;97388.48;1717714;83;20910;-93
2021/01/13 13:03:53;;;;;;;;;;;;;;;1.41;72.97;97388.28;1717723;83;21924;-94
2021/01/13 13:10:03;;;;;;;;;;;;;;;1.47;72.90;97384.55;1717918;83;22541;-95
2021/01/13 13:12:50;;;;;;;;;;;;;;;1.49;72.83;97386.58;1717950;81;20281;-93
2021/01/13 13:22:17;;;;;;;;;;;;;;;1.46;72.67;97386.75;1657807;86;22133;-96
2021/01/13 13:25:07;;;;;;;;;;;;;;;1.48;72.62;97380.59;1667496;85;24722;-95
2021/01/13 13:27:56;;;;;;;;;;;;;;;1.47;72.57;97387.97;1665403;85;20276;-94
2021/01/13 13:30:44;;;;;;;;;;;;;;;1.47;72.49;97391.84;1688411;85;24989;-94
2021/01/13 13:33:33;;;;;;;;;;;;;;;1.48;72.42;97381.05;1689236;85;22167;-95
2021/01/13 13:36:19;;;;;;;;;;;;;;;1.45;72.38;97382.50;1664622;85;26161;-93
2021/01/13 13:39:06;;;;;;;;;;;;;;;1.48;72.31;97386.20;1688614;85;24906;-91
2021/01/13 13:41:54;;;;;;;;;;;;;;;1.50;72.27;97372.78;1688932;85;20287;-92
2021/01/13 13:44:39;;;;;;;;;;;;;;;1.52;72.23;97377.42;1688358;85;24915;-95
2021/01/13 13:47:26;;;;;;;;;;;;;;;1.51;72.19;97377.03;1688240;85;21906;-95
2021/01/13 13:50:34;;;;;;;;;;;;;;;1.49;72.15;97374.98;1652696;86;26199;-94
2021/01/13 13:53:22;;;;;;;;;;;;;;;1.42;72.06;97387.34;1658916;86;25646;-92
2021/01/13 13:56:08;;;;;;;;;;;;;;;1.36;71.98;97388.13;1644616;86;20607;-94
2021/01/13 13:58:55;;;;;;;;;;;;;;;1.32;71.91;97397.73;1658803;86;24933;-93
2021/01/13 14:01:41;;;;;;;;;;;;;;;1.29;71.88;97395.32;1656850;84;22164;-95
2021/01/13 14:04:31;;;;;;;;;;;;;;;1.27;71.83;97400.99;1659416;85;26120;-94
2021/01/13 14:07:17;;;;;;;;;;;;;;;1.26;71.78;97396.74;1699913;84;24829;-95
2021/01/13 14:16:16;;;;;;;;;;;;;;;1.18;71.66;97411.31;1675160;85;20255;-93
2021/01/13 14:19:09;;;;;;;;;;;;;;;1.15;71.63;97421.75;1675150;85;26157;-95
2021/01/13 14:21:58;;;;;;;;;;;;;;;1.13;71.57;97414.56;1675033;85;24715;-95
2021/01/13 14:24:46;;;;;;;;;;;;;;;1.10;71.57;97418.56;1675312;85;20184;-95
2021/01/13 14:30:54;;;;;;;;;;;;;;;1.06;71.49;97418.34;1675787;85;20204;-94
2021/01/13 14:37:23;;;;;;;;;;;;;;;1.02;71.46;97415.98;1675096;85;22558;-95
2021/01/13 14:40:13;;;;;;;;;;;;;;;1.02;71.44;97412.96;1674989;84;20561;-94
2021/01/13 14:49:26;;;;;;;;;;;;;;;0.97;71.43;97403.33;1675149;85;22132;-92
2021/01/13 14:52:13;;;;;;;;;;;;;;;0.96;71.40;97414.98;1674808;85;24641;-92
2021/01/13 14:55:02;;;;;;;;;;;;;;;0.95;71.41;97410.73;1674882;85;20192;-95
2021/01/13 14:57:52;;;;;;;;;;;;;;;0.93;71.39;97407.42;1675613;85;25137;-96
2021/01/13 15:03:55;;;;;;;;;;;;;;;0.91;71.37;97394.61;1674834;85;22128;-94
2021/01/13 15:19:37;;;;;;;;;;;;;;;0.86;71.29;97392.71;1674957;85;22246;-92
2021/01/13 15:23:02;;;;;;;;;;;;;;;0.83;71.27;97386.41;1655400;85;24603;-96
2021/01/13 15:29:01;;;;;;;;;;;;;;;0.82;71.22;97377.84;1675462;85;21032;-94
2021/01/13 15:31:48;;;;;;;;;;;;;;;0.81;71.20;97371.50;1674950;85;22144;-95
2021/01/13 15:34:43;;;;;;;;;;;;;;;0.81;71.18;97369.77;1675618;84;26412;-94
2021/01/13 15:37:31;;;;;;;;;;;;;;;0.80;71.14;97374.52;1675191;85;24811;-94
2021/01/13 15:43:45;;;;;;;;;;;;;;;0.80;71.11;97367.25;1675589;85;20895;-92
2021/01/13 15:46:34;;;;;;;;;;;;;;;0.80;71.06;97364.67;1675802;85;22367;-96
2021/01/13 15:55:39;;;;;;;;;;;;;;;0.79;70.96;97359.14;1732670;82;20195;-96